Terminal Aerodrome Forecast
Issued by NWS Louisville, KY

Home | Current Version | Previous Version | Text Only | Print | Product List | Glossary On
Versions: 1 2 3 4 5 6 7 8 9 10 11 12 13 14 15
000
FTUS43 KLMK 211501 AAB
TAFLEX
TAF AMD
KLEX 211501Z 2115/2212 35005KT 5SM HZ SCT100
      TEMPO 2116/2117 5SM HZ
     FM211700 23007KT P6SM FEW050 BKN200=

USA.gov is the U.S. government's official web portal to all federal, state and local government web resources and services.